sensor_id;sensor_type;location;lat;lon;timestamp;P1;durP1;ratioP1;P2;durP2;ratioP2
64367;SDS011;50692;53.314;-6.300;2023-03-01T00:00:23;8.83;;;4.80;;
64367;SDS011;50692;53.314;-6.300;2023-03-01T00:03:09;8.07;;;4.60;;
64367;SDS011;50692;53.314;-6.300;2023-03-01T00:05:54;5.77;;;4.30;;
64367;SDS011;50692;53.314;-6.300;2023-03-01T00:08:40;5.37;;;3.23;;
64367;SDS011;50692;53.314;-6.300;2023-03-01T00:11:28;4.17;;;3.00;;
64367;SDS011;50692;53.314;-6.300;2023-03-01T00:14:16;3.72;;;2.80;;
64367;SDS011;50692;53.314;-6.300;2023-03-01T00:17:02;4.03;;;2.93;;
64367;SDS011;50692;53.314;-6.300;2023-03-01T00:19:48;5.57;;;3.33;;
64367;SDS011;50692;53.314;-6.300;2023-03-01T00:22:34;3.97;;;2.93;;
64367;SDS011;50692;53.314;-6.300;2023-03-01T00:25:20;6.43;;;2.93;;
64367;SDS011;50692;53.314;-6.300;2023-03-01T00:28:05;3.57;;;2.60;;
64367;SDS011;50692;53.314;-6.300;2023-03-01T00:30:51;4.93;;;2.90;;
64367;SDS011;50692;53.314;-6.300;2023-03-01T00:33:37;4.70;;;2.20;;
64367;SDS011;50692;53.314;-6.300;2023-03-01T00:36:25;6.33;;;1.10;;
64367;SDS011;50692;53.314;-6.300;2023-03-01T00:39:13;1.90;;;0.90;;
64367;SDS011;50692;53.314;-6.300;2023-03-01T00:42:00;1.83;;;0.87;;
64367;SDS011;50692;53.314;-6.300;2023-03-01T00:44:46;3.50;;;0.80;;
64367;SDS011;50692;53.314;-6.300;2023-03-01T00:47:31;1.83;;;1.10;;
64367;SDS011;50692;53.314;-6.300;2023-03-01T00:50:18;1.50;;;0.70;;
64367;SDS011;50692;53.314;-6.300;2023-03-01T00:53:04;2.17;;;0.60;;
64367;SDS011;50692;53.314;-6.300;2023-03-01T00:55:50;2.70;;;0.63;;
64367;SDS011;50692;53.314;-6.300;2023-03-01T00:58:36;1.20;;;0.63;;
64367;SDS011;50692;53.314;-6.300;2023-03-01T01:01:25;1.53;;;0.50;;
64367;SDS011;50692;53.314;-6.300;2023-03-01T01:04:16;0.40;;;0.40;;
64367;SDS011;50692;53.314;-6.300;2023-03-01T01:07:02;1.13;;;0.90;;
64367;SDS011;50692;53.314;-6.300;2023-03-01T01:09:47;1.23;;;0.60;;
64367;SDS011;50692;53.314;-6.300;2023-03-01T01:12:33;1.60;;;0.60;;
64367;SDS011;50692;53.314;-6.300;2023-03-01T01:15:19;0.87;;;0.47;;
64367;SDS011;50692;53.314;-6.300;2023-03-01T01:18:05;0.43;;;0.40;;
64367;SDS011;50692;53.314;-6.300;2023-03-01T01:20:51;0.30;;;0.30;;
64367;SDS011;50692;53.314;-6.300;2023-03-01T01:23:37;1.13;;;0.60;;
64367;SDS011;50692;53.314;-6.300;2023-03-01T01:26:25;0.87;;;0.40;;
64367;SDS011;50692;53.314;-6.300;2023-03-01T01:29:13;0.93;;;0.40;;
64367;SDS011;50692;53.314;-6.300;2023-03-01T01:31:59;1.00;;;0.40;;
64367;SDS011;50692;53.314;-6.300;2023-03-01T01:34:45;0.90;;;0.40;;
64367;SDS011;50692;53.314;-6.300;2023-03-01T01:37:31;0.97;;;0.60;;
64367;SDS011;50692;53.314;-6.300;2023-03-01T01:40:18;1.00;;;0.57;;
64367;SDS011;50692;53.314;-6.300;2023-03-01T01:43:04;0.97;;;0.30;;
64367;SDS011;50692;53.314;-6.300;2023-03-01T01:45:50;1.23;;;0.50;;
64367;SDS011;50692;53.314;-6.300;2023-03-01T01:48:41;0.77;;;0.43;;
64367;SDS011;50692;53.314;-6.300;2023-03-01T01:54:31;2.17;;;0.40;;
64367;SDS011;50692;53.314;-6.300;2023-03-01T01:57:27;1.70;;;0.50;;
64367;SDS011;50692;53.314;-6.300;2023-03-01T02:00:21;1.13;;;0.40;;
64367;SDS011;50692;53.314;-6.300;2023-03-01T02:03:10;0.70;;;0.33;;
64367;SDS011;50692;53.314;-6.300;2023-03-01T02:06:00;1.17;;;0.47;;
64367;SDS011;50692;53.314;-6.300;2023-03-01T02:08:51;0.63;;;0.40;;
64367;SDS011;50692;53.314;-6.300;2023-03-01T02:11:38;1.47;;;0.50;;
64367;SDS011;50692;53.314;-6.300;2023-03-01T02:14:24;1.63;;;0.50;;
64367;SDS011;50692;53.314;-6.300;2023-03-01T02:17:11;1.70;;;0.60;;
64367;SDS011;50692;53.314;-6.300;2023-03-01T02:23:24;2.40;;;0.50;;
64367;SDS011;50692;53.314;-6.300;2023-03-01T02:29:02;0.53;;;0.30;;
64367;SDS011;50692;53.314;-6.300;2023-03-01T02:31:49;1.30;;;0.50;;
64367;SDS011;50692;53.314;-6.300;2023-03-01T02:34:37;0.63;;;0.40;;
64367;SDS011;50692;53.314;-6.300;2023-03-01T02:37:24;2.10;;;0.70;;
64367;SDS011;50692;53.314;-6.300;2023-03-01T02:40:13;0.90;;;0.80;;
64367;SDS011;50692;53.314;-6.300;2023-03-01T02:43:02;0.60;;;0.60;;
64367;SDS011;50692;53.314;-6.300;2023-03-01T02:45:56;1.50;;;0.50;;
64367;SDS011;50692;53.314;-6.300;2023-03-01T02:48:45;1.13;;;0.60;;
64367;SDS011;50692;53.314;-6.300;2023-03-01T02:54:24;0.87;;;0.40;;
64367;SDS011;50692;53.314;-6.300;2023-03-01T02:57:15;0.80;;;0.80;;
64367;SDS011;50692;53.314;-6.300;2023-03-01T03:00:14;1.40;;;0.60;;
64367;SDS011;50692;53.314;-6.300;2023-03-01T03:03:06;1.27;;;0.50;;
64367;SDS011;50692;53.314;-6.300;2023-03-01T03:05:52;2.10;;;0.60;;
64367;SDS011;50692;53.314;-6.300;2023-03-01T03:08:38;3.40;;;0.57;;
64367;SDS011;50692;53.314;-6.300;2023-03-01T03:11:24;1.23;;;0.80;;
64367;SDS011;50692;53.314;-6.300;2023-03-01T03:14:11;1.83;;;0.70;;
64367;SDS011;50692;53.314;-6.300;2023-03-01T03:16:58;4.13;;;0.70;;
64367;SDS011;50692;53.314;-6.300;2023-03-01T03:19:43;0.90;;;0.60;;
64367;SDS011;50692;53.314;-6.300;2023-03-01T03:22:31;1.50;;;0.67;;
64367;SDS011;50692;53.314;-6.300;2023-03-01T03:25:19;3.67;;;0.60;;
64367;SDS011;50692;53.314;-6.300;2023-03-01T03:28:06;2.53;;;0.60;;
64367;SDS011;50692;53.314;-6.300;2023-03-01T03:30:55;0.65;;;0.47;;
64367;SDS011;50692;53.314;-6.300;2023-03-01T03:33:41;1.00;;;0.50;;
64367;SDS011;50692;53.314;-6.300;2023-03-01T03:36:26;1.07;;;0.40;;
64367;SDS011;50692;53.314;-6.300;2023-03-01T03:39:12;2.07;;;0.60;;
64367;SDS011;50692;53.314;-6.300;2023-03-01T03:41:58;1.87;;;0.60;;
64367;SDS011;50692;53.314;-6.300;2023-03-01T03:44:44;2.53;;;0.40;;
64367;SDS011;50692;53.314;-6.300;2023-03-01T03:47:30;1.43;;;0.53;;
64367;SDS011;50692;53.314;-6.300;2023-03-01T03:50:16;1.83;;;0.53;;
64367;SDS011;50692;53.314;-6.300;2023-03-01T03:53:04;1.53;;;0.70;;
64367;SDS011;50692;53.314;-6.300;2023-03-01T03:55:55;1.23;;;0.63;;
64367;SDS011;50692;53.314;-6.300;2023-03-01T03:58:41;1.57;;;0.60;;
64367;SDS011;50692;53.314;-6.300;2023-03-01T04:01:27;1.87;;;0.73;;
64367;SDS011;50692;53.314;-6.300;2023-03-01T04:04:12;0.60;;;0.60;;
64367;SDS011;50692;53.314;-6.300;2023-03-01T04:06:58;2.03;;;0.60;;
64367;SDS011;50692;53.314;-6.300;2023-03-01T04:09:46;1.03;;;0.43;;
64367;SDS011;50692;53.314;-6.300;2023-03-01T04:12:33;1.00;;;0.50;;
64367;SDS011;50692;53.314;-6.300;2023-03-01T04:15:20;2.57;;;0.50;;
64367;SDS011;50692;53.314;-6.300;2023-03-01T04:18:05;1.30;;;0.30;;
64367;SDS011;50692;53.314;-6.300;2023-03-01T04:20:52;2.00;;;0.43;;
64367;SDS011;50692;53.314;-6.300;2023-03-01T04:23:40;1.60;;;0.57;;
64367;SDS011;50692;53.314;-6.300;2023-03-01T04:26:26;1.37;;;0.50;;
64367;SDS011;50692;53.314;-6.300;2023-03-01T04:29:12;1.67;;;0.50;;
64367;SDS011;50692;53.314;-6.300;2023-03-01T04:31:58;1.43;;;0.40;;
64367;SDS011;50692;53.314;-6.300;2023-03-01T04:34:44;1.63;;;0.50;;
64367;SDS011;50692;53.314;-6.300;2023-03-01T04:37:30;0.70;;;0.40;;
64367;SDS011;50692;53.314;-6.300;2023-03-01T04:40:16;0.73;;;0.40;;
64367;SDS011;50692;53.314;-6.300;2023-03-01T04:43:02;1.53;;;0.50;;
64367;SDS011;50692;53.314;-6.300;2023-03-01T04:45:49;0.40;;;0.40;;
64367;SDS011;50692;53.314;-6.300;2023-03-01T04:48:35;1.23;;;0.60;;
64367;SDS011;50692;53.314;-6.300;2023-03-01T04:51:22;1.80;;;0.50;;
64367;SDS011;50692;53.314;-6.300;2023-03-01T04:54:08;1.63;;;0.40;;
64367;SDS011;50692;53.314;-6.300;2023-03-01T04:56:54;1.27;;;0.50;;
64367;SDS011;50692;53.314;-6.300;2023-03-01T04:59:40;1.87;;;0.60;;
64367;SDS011;50692;53.314;-6.300;2023-03-01T05:02:26;0.37;;;0.30;;
64367;SDS011;50692;53.314;-6.300;2023-03-01T05:05:12;2.17;;;0.50;;
64367;SDS011;50692;53.314;-6.300;2023-03-01T05:07:59;0.93;;;0.57;;
64367;SDS011;50692;53.314;-6.300;2023-03-01T05:10:48;1.50;;;0.60;;
64367;SDS011;50692;53.314;-6.300;2023-03-01T05:13:36;1.92;;;0.60;;
64367;SDS011;50692;53.314;-6.300;2023-03-01T05:16:23;1.40;;;0.60;;
64367;SDS011;50692;53.314;-6.300;2023-03-01T05:19:09;0.87;;;0.40;;
64367;SDS011;50692;53.314;-6.300;2023-03-01T05:22:00;3.90;;;0.60;;
64367;SDS011;50692;53.314;-6.300;2023-03-01T05:24:49;0.40;;;0.40;;
64367;SDS011;50692;53.314;-6.300;2023-03-01T05:27:35;1.07;;;0.60;;
64367;SDS011;50692;53.314;-6.300;2023-03-01T05:30:20;1.00;;;0.40;;
64367;SDS011;50692;53.314;-6.300;2023-03-01T05:33:07;2.03;;;0.40;;
64367;SDS011;50692;53.314;-6.300;2023-03-01T05:35:59;1.77;;;0.50;;
64367;SDS011;50692;53.314;-6.300;2023-03-01T05:38:45;0.50;;;0.30;;
64367;SDS011;50692;53.314;-6.300;2023-03-01T05:41:31;1.40;;;0.50;;
64367;SDS011;50692;53.314;-6.300;2023-03-01T05:44:17;2.30;;;0.60;;
64367;SDS011;50692;53.314;-6.300;2023-03-01T05:47:03;1.47;;;0.70;;
64367;SDS011;50692;53.314;-6.300;2023-03-01T05:49:48;1.03;;;0.80;;
64367;SDS011;50692;53.314;-6.300;2023-03-01T05:52:35;0.90;;;0.70;;
64367;SDS011;50692;53.314;-6.300;2023-03-01T05:55:21;0.93;;;0.60;;
64367;SDS011;50692;53.314;-6.300;2023-03-01T05:58:08;2.13;;;0.77;;
64367;SDS011;50692;53.314;-6.300;2023-03-01T06:03:43;2.30;;;0.77;;
64367;SDS011;50692;53.314;-6.300;2023-03-01T06:06:28;1.80;;;0.70;;
64367;SDS011;50692;53.314;-6.300;2023-03-01T06:09:14;2.83;;;0.80;;
64367;SDS011;50692;53.314;-6.300;2023-03-01T06:12:01;3.00;;;0.87;;
64367;SDS011;50692;53.314;-6.300;2023-03-01T06:14:46;3.13;;;0.90;;
64367;SDS011;50692;53.314;-6.300;2023-03-01T06:17:33;1.90;;;0.90;;
64367;SDS011;50692;53.314;-6.300;2023-03-01T06:20:23;1.67;;;0.90;;
64367;SDS011;50692;53.314;-6.300;2023-03-01T06:23:11;1.50;;;0.60;;
64367;SDS011;50692;53.314;-6.300;2023-03-01T06:25:58;2.07;;;0.73;;
64367;SDS011;50692;53.314;-6.300;2023-03-01T06:28:45;2.50;;;0.80;;
64367;SDS011;50692;53.314;-6.300;2023-03-01T06:31:31;1.57;;;0.77;;
64367;SDS011;50692;53.314;-6.300;2023-03-01T06:34:18;3.13;;;0.80;;
64367;SDS011;50692;53.314;-6.300;2023-03-01T06:37:32;2.07;;;0.80;;
64367;SDS011;50692;53.314;-6.300;2023-03-01T06:40:22;1.90;;;0.53;;
64367;SDS011;50692;53.314;-6.300;2023-03-01T06:43:10;1.33;;;0.50;;
64367;SDS011;50692;53.314;-6.300;2023-03-01T06:45:56;1.80;;;0.70;;
64367;SDS011;50692;53.314;-6.300;2023-03-01T06:48:42;2.37;;;0.60;;
64367;SDS011;50692;53.314;-6.300;2023-03-01T06:51:28;1.47;;;0.60;;
64367;SDS011;50692;53.314;-6.300;2023-03-01T06:54:13;1.93;;;1.10;;
64367;SDS011;50692;53.314;-6.300;2023-03-01T06:56:59;1.73;;;0.77;;
64367;SDS011;50692;53.314;-6.300;2023-03-01T06:59:46;3.07;;;0.70;;
64367;SDS011;50692;53.314;-6.300;2023-03-01T07:02:32;1.33;;;0.93;;
64367;SDS011;50692;53.314;-6.300;2023-03-01T07:05:18;4.90;;;0.90;;
64367;SDS011;50692;53.314;-6.300;2023-03-01T07:08:04;4.77;;;1.13;;
64367;SDS011;50692;53.314;-6.300;2023-03-01T07:10:57;1.07;;;0.70;;
64367;SDS011;50692;53.314;-6.300;2023-03-01T07:13:43;1.80;;;1.43;;
64367;SDS011;50692;53.314;-6.300;2023-03-01T07:16:29;1.30;;;0.80;;
64367;SDS011;50692;53.314;-6.300;2023-03-01T07:19:15;3.13;;;1.10;;
64367;SDS011;50692;53.314;-6.300;2023-03-01T07:22:01;1.07;;;0.80;;
64367;SDS011;50692;53.314;-6.300;2023-03-01T07:24:49;2.33;;;0.90;;
64367;SDS011;50692;53.314;-6.300;2023-03-01T07:27:35;0.90;;;0.67;;
64367;SDS011;50692;53.314;-6.300;2023-03-01T07:30:22;1.80;;;0.60;;
64367;SDS011;50692;53.314;-6.300;2023-03-01T07:33:11;2.63;;;0.68;;
64367;SDS011;50692;53.314;-6.300;2023-03-01T07:35:57;1.40;;;0.50;;
64367;SDS011;50692;53.314;-6.300;2023-03-01T07:38:43;3.13;;;0.80;;
64367;SDS011;50692;53.314;-6.300;2023-03-01T07:41:29;1.83;;;0.70;;
64367;SDS011;50692;53.314;-6.300;2023-03-01T07:44:15;1.47;;;0.60;;
64367;SDS011;50692;53.314;-6.300;2023-03-01T07:47:03;2.60;;;0.73;;
64367;SDS011;50692;53.314;-6.300;2023-03-01T07:49:49;1.50;;;0.87;;
64367;SDS011;50692;53.314;-6.300;2023-03-01T07:52:35;0.97;;;0.80;;
64367;SDS011;50692;53.314;-6.300;2023-03-01T07:55:21;1.90;;;1.03;;
64367;SDS011;50692;53.314;-6.300;2023-03-01T07:58:06;3.90;;;0.80;;
64367;SDS011;50692;53.314;-6.300;2023-03-01T08:00:52;2.30;;;0.87;;
64367;SDS011;50692;53.314;-6.300;2023-03-01T08:03:38;1.00;;;0.60;;
64367;SDS011;50692;53.314;-6.300;2023-03-01T08:06:24;1.60;;;0.73;;
64367;SDS011;50692;53.314;-6.300;2023-03-01T08:09:10;3.90;;;0.90;;
64367;SDS011;50692;53.314;-6.300;2023-03-01T08:11:56;4.83;;;1.40;;
64367;SDS011;50692;53.314;-6.300;2023-03-01T08:14:44;1.47;;;0.93;;
64367;SDS011;50692;53.314;-6.300;2023-03-01T08:17:30;4.07;;;0.90;;
64367;SDS011;50692;53.314;-6.300;2023-03-01T08:20:16;0.97;;;0.70;;
64367;SDS011;50692;53.314;-6.300;2023-03-01T08:23:02;2.27;;;0.90;;
64367;SDS011;50692;53.314;-6.300;2023-03-01T08:25:47;2.37;;;0.60;;
64367;SDS011;50692;53.314;-6.300;2023-03-01T08:28:33;2.83;;;0.90;;
64367;SDS011;50692;53.314;-6.300;2023-03-01T08:31:24;1.20;;;0.80;;
64367;SDS011;50692;53.314;-6.300;2023-03-01T08:34:13;2.17;;;0.83;;
64367;SDS011;50692;53.314;-6.300;2023-03-01T08:37:01;1.98;;;0.50;;
64367;SDS011;50692;53.314;-6.300;2023-03-01T08:39:47;2.83;;;1.10;;
64367;SDS011;50692;53.314;-6.300;2023-03-01T08:42:32;5.23;;;1.00;;
64367;SDS011;50692;53.314;-6.300;2023-03-01T08:45:18;1.83;;;0.70;;
64367;SDS011;50692;53.314;-6.300;2023-03-01T08:48:04;0.50;;;0.50;;
64367;SDS011;50692;53.314;-6.300;2023-03-01T08:50:50;2.17;;;0.60;;
64367;SDS011;50692;53.314;-6.300;2023-03-01T08:53:36;4.93;;;1.40;;
64367;SDS011;50692;53.314;-6.300;2023-03-01T08:56:22;2.03;;;0.63;;
64367;SDS011;50692;53.314;-6.300;2023-03-01T08:59:09;1.90;;;0.90;;
64367;SDS011;50692;53.314;-6.300;2023-03-01T09:01:56;2.40;;;1.07;;
64367;SDS011;50692;53.314;-6.300;2023-03-01T09:04:42;1.07;;;0.50;;
64367;SDS011;50692;53.314;-6.300;2023-03-01T09:07:28;0.80;;;0.60;;
64367;SDS011;50692;53.314;-6.300;2023-03-01T09:10:14;2.63;;;0.80;;
64367;SDS011;50692;53.314;-6.300;2023-03-01T09:12:59;2.03;;;0.70;;
64367;SDS011;50692;53.314;-6.300;2023-03-01T09:15:45;1.77;;;0.87;;
64367;SDS011;50692;53.314;-6.300;2023-03-01T09:18:31;2.03;;;0.90;;
64367;SDS011;50692;53.314;-6.300;2023-03-01T09:21:19;1.63;;;0.70;;
64367;SDS011;50692;53.314;-6.300;2023-03-01T09:24:07;1.43;;;0.50;;
64367;SDS011;50692;53.314;-6.300;2023-03-01T09:26:58;1.67;;;0.70;;
64367;SDS011;50692;53.314;-6.300;2023-03-01T09:29:44;1.13;;;0.70;;
64367;SDS011;50692;53.314;-6.300;2023-03-01T09:32:30;2.50;;;0.57;;
64367;SDS011;50692;53.314;-6.300;2023-03-01T09:35:17;1.07;;;0.50;;
64367;SDS011;50692;53.314;-6.300;2023-03-01T09:38:03;1.53;;;0.63;;
64367;SDS011;50692;53.314;-6.300;2023-03-01T09:40:48;1.70;;;0.60;;
64367;SDS011;50692;53.314;-6.300;2023-03-01T09:43:43;1.33;;;0.50;;
64367;SDS011;50692;53.314;-6.300;2023-03-01T09:46:31;0.70;;;0.50;;
64367;SDS011;50692;53.314;-6.300;2023-03-01T09:49:27;1.90;;;0.40;;
64367;SDS011;50692;53.314;-6.300;2023-03-01T09:55:29;1.17;;;0.40;;
64367;SDS011;50692;53.314;-6.300;2023-03-01T10:01:16;1.70;;;0.50;;
64367;SDS011;50692;53.314;-6.300;2023-03-01T10:10:40;2.50;;;0.50;;
64367;SDS011;50692;53.314;-6.300;2023-03-01T10:13:33;1.23;;;0.40;;
64367;SDS011;50692;53.314;-6.300;2023-03-01T10:16:26;0.73;;;0.50;;
64367;SDS011;50692;53.314;-6.300;2023-03-01T10:19:24;1.43;;;0.60;;
64367;SDS011;50692;53.314;-6.300;2023-03-01T10:22:18;2.27;;;0.40;;
64367;SDS011;50692;53.314;-6.300;2023-03-01T10:25:08;1.03;;;0.43;;
64367;SDS011;50692;53.314;-6.300;2023-03-01T10:28:02;0.97;;;0.63;;
64367;SDS011;50692;53.314;-6.300;2023-03-01T10:30:52;2.17;;;0.53;;
64367;SDS011;50692;53.314;-6.300;2023-03-01T10:33:38;2.70;;;0.63;;
64367;SDS011;50692;53.314;-6.300;2023-03-01T10:36:28;1.73;;;0.60;;
64367;SDS011;50692;53.314;-6.300;2023-03-01T10:39:20;1.13;;;0.67;;
64367;SDS011;50692;53.314;-6.300;2023-03-01T10:42:27;0.60;;;0.40;;
64367;SDS011;50692;53.314;-6.300;2023-03-01T10:45:17;1.87;;;0.83;;
64367;SDS011;50692;53.314;-6.300;2023-03-01T10:48:14;0.77;;;0.37;;
64367;SDS011;50692;53.314;-6.300;2023-03-01T10:53:48;0.53;;;0.50;;
64367;SDS011;50692;53.314;-6.300;2023-03-01T10:56:46;1.27;;;0.60;;
64367;SDS011;50692;53.314;-6.300;2023-03-01T10:59:40;1.13;;;0.60;;
64367;SDS011;50692;53.314;-6.300;2023-03-01T11:05:17;1.58;;;0.57;;
64367;SDS011;50692;53.314;-6.300;2023-03-01T11:08:09;2.37;;;0.80;;
64367;SDS011;50692;53.314;-6.300;2023-03-01T11:11:05;1.98;;;0.60;;
64367;SDS011;50692;53.314;-6.300;2023-03-01T11:14:15;0.68;;;0.50;;
64367;SDS011;50692;53.314;-6.300;2023-03-01T11:23:05;2.83;;;0.70;;
64367;SDS011;50692;53.314;-6.300;2023-03-01T11:26:06;1.55;;;1.00;;
64367;SDS011;50692;53.314;-6.300;2023-03-01T11:28:55;3.53;;;1.30;;
64367;SDS011;50692;53.314;-6.300;2023-03-01T11:34:40;1.70;;;0.73;;
64367;SDS011;50692;53.314;-6.300;2023-03-01T11:37:38;1.63;;;0.60;;
64367;SDS011;50692;53.314;-6.300;2023-03-01T11:40:50;2.17;;;1.10;;
64367;SDS011;50692;53.314;-6.300;2023-03-01T11:46:50;4.30;;;1.00;;
64367;SDS011;50692;53.314;-6.300;2023-03-01T11:55:49;1.47;;;0.50;;
64367;SDS011;50692;53.314;-6.300;2023-03-01T12:02:07;1.90;;;0.95;;
64367;SDS011;50692;53.314;-6.300;2023-03-01T12:05:20;1.45;;;0.50;;
64367;SDS011;50692;53.314;-6.300;2023-03-01T12:08:29;1.08;;;0.50;;
64367;SDS011;50692;53.314;-6.300;2023-03-01T12:24:04;0.90;;;0.70;;
64367;SDS011;50692;53.314;-6.300;2023-03-01T12:30:33;1.75;;;0.85;;
64367;SDS011;50692;53.314;-6.300;2023-03-01T12:39:32;1.65;;;0.47;;
64367;SDS011;50692;53.314;-6.300;2023-03-01T12:54:45;2.28;;;1.00;;
64367;SDS011;50692;53.314;-6.300;2023-03-01T12:57:34;1.90;;;0.60;;
64367;SDS011;50692;53.314;-6.300;2023-03-01T13:00:32;4.25;;;0.70;;
64367;SDS011;50692;53.314;-6.300;2023-03-01T13:03:48;1.20;;;0.65;;
64367;SDS011;50692;53.314;-6.300;2023-03-01T13:10:21;2.05;;;1.08;;
64367;SDS011;50692;53.314;-6.300;2023-03-01T13:15:53;5.85;;;1.08;;
64367;SDS011;50692;53.314;-6.300;2023-03-01T13:18:40;1.17;;;0.55;;
64367;SDS011;50692;53.314;-6.300;2023-03-01T13:21:29;1.42;;;0.47;;
64367;SDS011;50692;53.314;-6.300;2023-03-01T13:27:25;0.80;;;0.63;;
64367;SDS011;50692;53.314;-6.300;2023-03-01T13:45:24;1.50;;;0.82;;
64367;SDS011;50692;53.314;-6.300;2023-03-01T13:48:22;0.93;;;0.57;;
64367;SDS011;50692;53.314;-6.300;2023-03-01T13:51:10;2.38;;;0.70;;
64367;SDS011;50692;53.314;-6.300;2023-03-01T13:53:57;1.50;;;0.60;;
64367;SDS011;50692;53.314;-6.300;2023-03-01T13:56:44;1.65;;;0.45;;
64367;SDS011;50692;53.314;-6.300;2023-03-01T13:59:30;1.65;;;0.75;;
64367;SDS011;50692;53.314;-6.300;2023-03-01T14:02:16;1.42;;;0.65;;
64367;SDS011;50692;53.314;-6.300;2023-03-01T14:05:02;3.42;;;0.73;;
64367;SDS011;50692;53.314;-6.300;2023-03-01T14:07:50;2.30;;;1.20;;
64367;SDS011;50692;53.314;-6.300;2023-03-01T14:10:43;2.05;;;1.20;;
64367;SDS011;50692;53.314;-6.300;2023-03-01T14:19:35;1.60;;;0.70;;
64367;SDS011;50692;53.314;-6.300;2023-03-01T14:25:20;2.50;;;1.35;;
64367;SDS011;50692;53.314;-6.300;2023-03-01T14:28:22;1.92;;;0.88;;
64367;SDS011;50692;53.314;-6.300;2023-03-01T14:31:37;1.53;;;0.60;;
64367;SDS011;50692;53.314;-6.300;2023-03-01T14:34:24;1.02;;;0.70;;
64367;SDS011;50692;53.314;-6.300;2023-03-01T14:37:18;1.75;;;0.50;;
64367;SDS011;50692;53.314;-6.300;2023-03-01T14:40:19;1.42;;;0.80;;
64367;SDS011;50692;53.314;-6.300;2023-03-01T14:43:12;1.52;;;0.75;;
64367;SDS011;50692;53.314;-6.300;2023-03-01T14:46:06;1.65;;;0.60;;
64367;SDS011;50692;53.314;-6.300;2023-03-01T14:48:53;1.55;;;0.65;;
64367;SDS011;50692;53.314;-6.300;2023-03-01T14:51:49;0.88;;;0.60;;
64367;SDS011;50692;53.314;-6.300;2023-03-01T14:54:42;1.85;;;0.70;;
64367;SDS011;50692;53.314;-6.300;2023-03-01T14:57:31;1.33;;;0.70;;
64367;SDS011;50692;53.314;-6.300;2023-03-01T15:00:19;1.73;;;0.70;;
64367;SDS011;50692;53.314;-6.300;2023-03-01T15:03:11;2.70;;;0.65;;
64367;SDS011;50692;53.314;-6.300;2023-03-01T15:06:09;1.83;;;0.70;;
64367;SDS011;50692;53.314;-6.300;2023-03-01T15:08:59;2.30;;;0.82;;
64367;SDS011;50692;53.314;-6.300;2023-03-01T15:11:45;2.03;;;0.70;;
64367;SDS011;50692;53.314;-6.300;2023-03-01T15:14:41;4.82;;;0.80;;
64367;SDS011;50692;53.314;-6.300;2023-03-01T15:17:35;1.55;;;0.80;;
64367;SDS011;50692;53.314;-6.300;2023-03-01T15:20:24;2.03;;;0.70;;
64367;SDS011;50692;53.314;-6.300;2023-03-01T15:23:18;2.15;;;0.98;;
64367;SDS011;50692;53.314;-6.300;2023-03-01T15:26:23;2.50;;;0.70;;
64367;SDS011;50692;53.314;-6.300;2023-03-01T15:29:19;3.00;;;1.05;;
64367;SDS011;50692;53.314;-6.300;2023-03-01T15:35:33;4.30;;;1.13;;
64367;SDS011;50692;53.314;-6.300;2023-03-01T15:44:25;0.85;;;0.75;;
64367;SDS011;50692;53.314;-6.300;2023-03-01T15:50:34;0.73;;;0.57;;
64367;SDS011;50692;53.314;-6.300;2023-03-01T15:53:22;2.03;;;0.80;;
64367;SDS011;50692;53.314;-6.300;2023-03-01T15:56:08;1.92;;;0.98;;
64367;SDS011;50692;53.314;-6.300;2023-03-01T15:58:58;2.70;;;1.10;;
64367;SDS011;50692;53.314;-6.300;2023-03-01T16:01:45;2.97;;;0.88;;
64367;SDS011;50692;53.314;-6.300;2023-03-01T16:04:33;1.35;;;0.70;;
64367;SDS011;50692;53.314;-6.300;2023-03-01T16:07:19;2.10;;;0.90;;
64367;SDS011;50692;53.314;-6.300;2023-03-01T16:10:05;0.88;;;0.70;;
64367;SDS011;50692;53.314;-6.300;2023-03-01T16:12:51;1.50;;;0.90;;
64367;SDS011;50692;53.314;-6.300;2023-03-01T16:15:38;2.25;;;0.70;;
64367;SDS011;50692;53.314;-6.300;2023-03-01T16:18:24;0.68;;;0.60;;
64367;SDS011;50692;53.314;-6.300;2023-03-01T16:21:12;1.67;;;0.82;;
64367;SDS011;50692;53.314;-6.300;2023-03-01T16:24:07;1.65;;;0.85;;
64367;SDS011;50692;53.314;-6.300;2023-03-01T16:26:53;1.80;;;0.90;;
64367;SDS011;50692;53.314;-6.300;2023-03-01T16:29:39;2.00;;;1.20;;
64367;SDS011;50692;53.314;-6.300;2023-03-01T16:32:25;1.40;;;1.10;;
64367;SDS011;50692;53.314;-6.300;2023-03-01T16:35:11;0.82;;;0.60;;
64367;SDS011;50692;53.314;-6.300;2023-03-01T16:37:59;1.42;;;0.90;;
64367;SDS011;50692;53.314;-6.300;2023-03-01T16:40:49;2.63;;;1.00;;
64367;SDS011;50692;53.314;-6.300;2023-03-01T16:43:36;1.77;;;0.82;;
64367;SDS011;50692;53.314;-6.300;2023-03-01T16:46:23;1.70;;;1.00;;
64367;SDS011;50692;53.314;-6.300;2023-03-01T16:49:10;3.53;;;1.20;;
64367;SDS011;50692;53.314;-6.300;2023-03-01T16:51:56;3.22;;;1.48;;
64367;SDS011;50692;53.314;-6.300;2023-03-01T16:54:42;2.33;;;0.80;;
64367;SDS011;50692;53.314;-6.300;2023-03-01T16:57:27;2.42;;;1.45;;
64367;SDS011;50692;53.314;-6.300;2023-03-01T17:00:14;2.63;;;1.30;;
64367;SDS011;50692;53.314;-6.300;2023-03-01T17:03:00;3.08;;;0.93;;
64367;SDS011;50692;53.314;-6.300;2023-03-01T17:05:46;2.23;;;0.90;;
64367;SDS011;50692;53.314;-6.300;2023-03-01T17:08:33;2.13;;;1.13;;
64367;SDS011;50692;53.314;-6.300;2023-03-01T17:11:19;1.33;;;0.87;;
64367;SDS011;50692;53.314;-6.300;2023-03-01T17:14:06;2.33;;;0.80;;
64367;SDS011;50692;53.314;-6.300;2023-03-01T17:16:52;6.13;;;1.43;;
64367;SDS011;50692;53.314;-6.300;2023-03-01T17:19:38;2.03;;;0.70;;
64367;SDS011;50692;53.314;-6.300;2023-03-01T17:22:26;3.43;;;0.90;;
64367;SDS011;50692;53.314;-6.300;2023-03-01T17:25:12;2.70;;;1.00;;
64367;SDS011;50692;53.314;-6.300;2023-03-01T17:27:59;2.70;;;0.90;;
64367;SDS011;50692;53.314;-6.300;2023-03-01T17:30:45;4.17;;;1.17;;
64367;SDS011;50692;53.314;-6.300;2023-03-01T17:33:32;1.43;;;0.90;;
64367;SDS011;50692;53.314;-6.300;2023-03-01T17:36:18;2.43;;;1.17;;
64367;SDS011;50692;53.314;-6.300;2023-03-01T17:39:04;2.63;;;1.20;;
64367;SDS011;50692;53.314;-6.300;2023-03-01T17:41:50;5.93;;;2.30;;
64367;SDS011;50692;53.314;-6.300;2023-03-01T17:44:36;3.90;;;2.20;;
64367;SDS011;50692;53.314;-6.300;2023-03-01T17:47:22;3.03;;;1.33;;
64367;SDS011;50692;53.314;-6.300;2023-03-01T17:50:08;2.30;;;1.50;;
64367;SDS011;50692;53.314;-6.300;2023-03-01T17:52:55;3.33;;;1.63;;
64367;SDS011;50692;53.314;-6.300;2023-03-01T17:55:41;5.10;;;1.87;;
64367;SDS011;50692;53.314;-6.300;2023-03-01T17:58:28;5.17;;;1.60;;
64367;SDS011;50692;53.314;-6.300;2023-03-01T18:01:16;2.83;;;1.57;;
64367;SDS011;50692;53.314;-6.300;2023-03-01T18:04:03;3.70;;;1.42;;
64367;SDS011;50692;53.314;-6.300;2023-03-01T18:06:49;3.20;;;1.87;;
64367;SDS011;50692;53.314;-6.300;2023-03-01T18:09:35;6.57;;;1.30;;
64367;SDS011;50692;53.314;-6.300;2023-03-01T18:12:21;4.90;;;1.70;;
64367;SDS011;50692;53.314;-6.300;2023-03-01T18:15:07;4.50;;;1.53;;
64367;SDS011;50692;53.314;-6.300;2023-03-01T18:17:53;2.43;;;1.40;;
64367;SDS011;50692;53.314;-6.300;2023-03-01T18:20:39;3.27;;;1.67;;
64367;SDS011;50692;53.314;-6.300;2023-03-01T18:23:25;4.47;;;1.80;;
64367;SDS011;50692;53.314;-6.300;2023-03-01T18:26:12;5.30;;;2.40;;
64367;SDS011;50692;53.314;-6.300;2023-03-01T18:29:06;3.73;;;1.63;;
64367;SDS011;50692;53.314;-6.300;2023-03-01T18:31:52;4.37;;;1.53;;
64367;SDS011;50692;53.314;-6.300;2023-03-01T18:34:38;4.17;;;1.40;;
64367;SDS011;50692;53.314;-6.300;2023-03-01T18:37:24;3.63;;;1.30;;
64367;SDS011;50692;53.314;-6.300;2023-03-01T18:40:10;2.80;;;1.40;;
64367;SDS011;50692;53.314;-6.300;2023-03-01T18:42:58;6.27;;;1.70;;
64367;SDS011;50692;53.314;-6.300;2023-03-01T18:45:44;3.70;;;2.03;;
64367;SDS011;50692;53.314;-6.300;2023-03-01T18:48:31;3.17;;;1.70;;
64367;SDS011;50692;53.314;-6.300;2023-03-01T18:51:18;2.60;;;1.40;;
64367;SDS011;50692;53.314;-6.300;2023-03-01T18:54:12;3.40;;;1.80;;